Página principal
METAR-TAF:

METAR-TAF

Aeroportos :

Guelmim, Marrocos

latitude: 29-01-00N, longitude: 10-04-04W, altura: 301 m

Observação actual do tempo

O boletim foi feito há 17 minutos, às 06:00 UTC
Vento 6 kt de su-sudoeste
Temperatura 17°C
Humidade 100%
Pressão 1013 hPa
Visibilidade: 3000 m
Encobertoa uma altura de 600 ft
neblina

METAR: GMAG 120600Z 21006KT 3000 BR OVC006 17/17 Q1013 NOSIG

Hora: 07:17 (06:17 UTC)

Previsão

O boletim foi feito há 7 horas e 17 minutos, às 23:00 UTC
Previsão válida de 12 às 00 UTC a 13 às 06 UTC
Vento 10 kt de oes-sudoeste
Visibilidade: 8000 m
Probabilidade 30%
de 12 às 00 UTC a 12 às 06 UTC
Visibilidade: 3000 m
Nuvens dispersasa uma altura de 1000 ft
neblina

TAF: GMAG 112300Z 1200/1306 24010KT 8000 NSC PROB30 1200/1206 3000 BR SCT010

Observações e previsões do tempo de mais de 4000 aeroportos (mensagens METAR e TAF).

As estações disponíveis são os pontos amarelos e vermelhos sobre o mapa.

Mova o rato sobre o mapa para ver o nome da estação.

Depois clique no ponto para visualizar as observações e previsões meteorológicas.

Para alterar o mapa : clique nos botões verdes com uma cruz preta para aumentar o zoom; no botão verde com uma pitada de zoom; ou nas setas verdes para mapas adjacentes.


METAR-TAF: